Lakewood, CO

7:33 PM MDT on April 01, 2015 (GMT -0600)
Crown Hill Park | | Change Station
CLOSE
Current Station
Personal Weather Station
Location: Wheat Ridge, CO
Elevation: 5480 ft
Nearby Weather Stations

Elev 5480 ft 39.77 °N, 105.10 °W | Updated 4 minutes ago

Overcast
Overcast
57.7 °F
Feels Like 57.7 °F
N
2.0
Wind Variable Wind from SSE

Today
High -- | Low -- °F
--% Chance of Precip.
Yesterday
High -- | Low -- °F
Precip. -- in
6:44 AM 7:24 PM
Waxing Gibbous, 95% visible
Pressure 29.80 in
Visibility 40.0 miles
Clouds Few 7000 ft
Scattered Clouds 10000 ft
Mostly Cloudy 20000 ft
Dew Point 36 °F
Humidity 44%
Rainfall 0.00 in
Snow Depth Not available.
UV 0 out of 12
Pollen 11.10 out of 12
Air Quality Not available.
Flu Activity Not available.
METAR KBJC 020047Z 08014KT 40SM FEW070 SCT100 BKN200 14/M01 A2980

More Conditions Fewer Conditions

Pressure 29.80 in
Visibility 40.0 miles
Clouds Few 7000 ft
Scattered Clouds 10000 ft
Mostly Cloudy 20000 ft
Dew Point 36 °F
Humidity 44%
Rainfall 0.00 in
Snow Depth Not available.
UV 0 out of 12
Pollen 11.10 out of 12
Air Quality Not available.
Flu Activity Not available.
METAR KBJC 020047Z 08014KT 40SM FEW070 SCT100 BKN200 14/M01 A2980

More Conditions Fewer Conditions

Nowcast | as of 5:54 PM MDT on April 1, 2015

Scattered light rain showers and isolated thunderstorms will continue over the I-25 urban corridor from Fort Collins down to Castle Rock through 730 PM. The storms will produce only light amounts of rain and gusty winds to 40 mph...along with some cloud to ground lightning. Decreasing clouds are expected later this evening as the showers move off to the east.

×

10-Day Weather Forecast

Almanac

Astronomy

Apr. 01, 2015 Rise Set
Actual Time
Civil Twilight
Nautical Twilight
Astronomical Twilight
Moon
Length of Visible Light
Length of Day
Tomorrow will be .
, % of the Moon is Illuminated

Today's Extremes

State Highs State Lows

Community

WunderPhotos

Upload Photos

1,810,148 photos uploaded!

WunderBlogs® & News

Nearby

Air Quality

  Air Quality AQ Index Pollutant
Not available.

Snow Depth

Station Depth Elevation

Earthquake Activity

City Distance Mag. Time & Date
Minimum magnitude displayed is 2.5.

Coastal Water Temperatures

Place Temperature

Stations

Nearby Weather Stations

Station Location Temp. Windchill Dew Point Humidity Wind Precip. Elev Updated Type